sensor_id;sensor_type;location;lat;lon;timestamp;pressure;altitude;pressure_sealevel;temperature;humidity
46007;BME280;31738;50.188;8.524;2023-01-25T00:01:30;100704.16;;;3.14;88.26
46007;BME280;31738;50.188;8.524;2023-01-25T00:03:57;100706.81;;;3.14;88.01
46007;BME280;31738;50.188;8.524;2023-01-25T00:06:22;100698.69;;;3.15;88.22
46007;BME280;31738;50.188;8.524;2023-01-25T00:08:49;100693.84;;;3.19;88.41
46007;BME280;31738;50.188;8.524;2023-01-25T00:11:15;100697.13;;;3.21;88.26
46007;BME280;31738;50.188;8.524;2023-01-25T00:13:46;100698.78;;;3.22;88.54
46007;BME280;31738;50.188;8.524;2023-01-25T00:16:12;100693.84;;;3.19;88.40
46007;BME280;31738;50.188;8.524;2023-01-25T00:18:40;100686.25;;;3.16;88.62
46007;BME280;31738;50.188;8.524;2023-01-25T00:21:16;100687.91;;;3.17;88.00
46007;BME280;31738;50.188;8.524;2023-01-25T00:23:49;100683.59;;;3.16;88.38
46007;BME280;31738;50.188;8.524;2023-01-25T00:26:38;100688.13;;;3.07;88.57
46007;BME280;31738;50.188;8.524;2023-01-25T00:29:03;100670.41;;;3.08;88.48
46007;BME280;31738;50.188;8.524;2023-01-25T00:39:36;100667.47;;;3.03;88.84
46007;BME280;31738;50.188;8.524;2023-01-25T00:42:04;100673.25;;;3.06;88.75
46007;BME280;31738;50.188;8.524;2023-01-25T00:44:30;100670.78;;;3.05;88.92
46007;BME280;31738;50.188;8.524;2023-01-25T00:46:55;100665.28;;;3.06;88.64
46007;BME280;31738;50.188;8.524;2023-01-25T00:49:22;100669.59;;;3.07;88.43
46007;BME280;31738;50.188;8.524;2023-01-25T00:51:52;100660.19;;;3.05;88.54
46007;BME280;31738;50.188;8.524;2023-01-25T00:54:19;100661.81;;;3.06;88.55
46007;BME280;31738;50.188;8.524;2023-01-25T00:56:45;100659.81;;;3.08;88.66
46007;BME280;31738;50.188;8.524;2023-01-25T00:59:12;100657.16;;;3.08;88.96
46007;BME280;31738;50.188;8.524;2023-01-25T01:01:40;100655.13;;;3.10;88.36
46007;BME280;31738;50.188;8.524;2023-01-25T01:04:06;100663.75;;;3.12;88.94
46007;BME280;31738;50.188;8.524;2023-01-25T01:06:37;100670.06;;;3.11;88.42
46007;BME280;31738;50.188;8.524;2023-01-25T01:09:04;100673.13;;;3.00;88.96
46007;BME280;31738;50.188;8.524;2023-01-25T01:11:30;100671.50;;;2.99;88.97
46007;BME280;31738;50.188;8.524;2023-01-25T01:13:57;100666.81;;;3.01;89.30
46007;BME280;31738;50.188;8.524;2023-01-25T01:16:23;100666.63;;;3.02;89.32
46007;BME280;31738;50.188;8.524;2023-01-25T01:18:51;100661.81;;;3.06;88.71
46007;BME280;31738;50.188;8.524;2023-01-25T01:21:24;100664.47;;;3.06;89.25
46007;BME280;31738;50.188;8.524;2023-01-25T01:23:49;100672.41;;;3.06;88.78
46007;BME280;31738;50.188;8.524;2023-01-25T01:26:20;100667.47;;;3.03;88.80
46007;BME280;31738;50.188;8.524;2023-01-25T01:28:46;100666.63;;;3.02;89.26
46007;BME280;31738;50.188;8.524;2023-01-25T01:31:22;100661.16;;;3.04;88.71
46007;BME280;31738;50.188;8.524;2023-01-25T01:34:09;100664.16;;;3.01;88.86
46007;BME280;31738;50.188;8.524;2023-01-25T01:36:40;100658.84;;;3.01;89.33
46007;BME280;31738;50.188;8.524;2023-01-25T01:39:09;100669.09;;;3.04;89.11
46007;BME280;31738;50.188;8.524;2023-01-25T01:48:32;100645.44;;;2.80;89.47
46007;BME280;31738;50.188;8.524;2023-01-25T01:53:47;100636.03;;;2.77;89.83
46007;BME280;31738;50.188;8.524;2023-01-25T01:56:17;100642.09;;;2.86;89.54
46007;BME280;31738;50.188;8.524;2023-01-25T01:58:46;100638.41;;;2.87;89.53
46007;BME280;31738;50.188;8.524;2023-01-25T02:01:14;100630.47;;;2.87;89.34
46007;BME280;31738;50.188;8.524;2023-01-25T02:03:42;100639.72;;;2.91;89.38
46007;BME280;31738;50.188;8.524;2023-01-25T02:06:13;100636.06;;;2.92;89.31
46007;BME280;31738;50.188;8.524;2023-01-25T02:08:40;100635.06;;;2.93;89.68
46007;BME280;31738;50.188;8.524;2023-01-25T02:11:08;100631.44;;;2.94;89.26
46007;BME280;31738;50.188;8.524;2023-01-25T02:14:09;100631.47;;;2.86;89.60
46007;BME280;31738;50.188;8.524;2023-01-25T02:16:35;100637.44;;;2.88;89.89
46007;BME280;31738;50.188;8.524;2023-01-25T02:19:05;100628.13;;;2.92;89.71
46007;BME280;31738;50.188;8.524;2023-01-25T02:21:38;100633.06;;;2.95;89.33
46007;BME280;31738;50.188;8.524;2023-01-25T02:24:10;100627.75;;;2.95;89.68
46007;BME280;31738;50.188;8.524;2023-01-25T02:26:39;100631.78;;;2.91;89.50
46007;BME280;31738;50.188;8.524;2023-01-25T02:29:06;100624.81;;;2.90;89.73
46007;BME280;31738;50.188;8.524;2023-01-25T02:31:35;100628.13;;;2.92;89.51
46007;BME280;31738;50.188;8.524;2023-01-25T02:34:01;100622.81;;;2.92;89.92
46007;BME280;31738;50.188;8.524;2023-01-25T02:36:32;100631.78;;;2.91;89.51
46007;BME280;31738;50.188;8.524;2023-01-25T02:39:34;100620.22;;;2.84;89.64
46007;BME280;31738;50.188;8.524;2023-01-25T02:41:59;100613.28;;;2.83;89.57
46007;BME280;31738;50.188;8.524;2023-01-25T02:44:33;100610.81;;;2.81;89.86
46007;BME280;31738;50.188;8.524;2023-01-25T02:48:09;100619.53;;;2.67;90.39
46007;BME280;31738;50.188;8.524;2023-01-25T02:50:35;100609.41;;;2.71;90.00
46007;BME280;31738;50.188;8.524;2023-01-25T02:53:44;100617.34;;;2.71;90.25
46007;BME280;31738;50.188;8.524;2023-01-25T02:56:15;100613.69;;;2.72;90.37
46007;BME280;31738;50.188;8.524;2023-01-25T02:58:41;100614.22;;;2.67;90.32
46007;BME280;31738;50.188;8.524;2023-01-25T03:01:07;100606.59;;;2.72;90.39
46007;BME280;31738;50.188;8.524;2023-01-25T03:03:36;100607.25;;;2.74;90.44
46007;BME280;31738;50.188;8.524;2023-01-25T03:06:05;100607.06;;;2.76;90.07
46007;BME280;31738;50.188;8.524;2023-01-25T03:08:34;100610.34;;;2.78;90.41
46007;BME280;31738;50.188;8.524;2023-01-25T03:11:17;100601.28;;;2.72;90.06
46007;BME280;31738;50.188;8.524;2023-01-25T03:14:14;100599.97;;;2.68;89.95
46007;BME280;31738;50.188;8.524;2023-01-25T03:16:42;100604.13;;;2.71;90.52
46007;BME280;31738;50.188;8.524;2023-01-25T03:19:08;100595.16;;;2.72;90.49
46007;BME280;31738;50.188;8.524;2023-01-25T03:21:34;100590.69;;;2.72;89.93
46007;BME280;31738;50.188;8.524;2023-01-25T03:24:00;100589.84;;;2.72;90.37
46007;BME280;31738;50.188;8.524;2023-01-25T03:26:33;100586.63;;;2.62;91.09
46007;BME280;31738;50.188;8.524;2023-01-25T03:29:26;100582.31;;;2.61;90.81
46007;BME280;31738;50.188;8.524;2023-01-25T03:32:04;100576.03;;;2.62;90.63
46007;BME280;31738;50.188;8.524;2023-01-25T03:34:41;100581.88;;;2.57;90.90
46007;BME280;31738;50.188;8.524;2023-01-25T03:37:07;100570.38;;;2.65;90.67
46007;BME280;31738;50.188;8.524;2023-01-25T03:39:35;100575.22;;;2.61;90.83
46007;BME280;31738;50.188;8.524;2023-01-25T03:42:06;100569.44;;;2.58;91.11
46007;BME280;31738;50.188;8.524;2023-01-25T03:44:35;100569.72;;;2.63;90.73
46007;BME280;31738;50.188;8.524;2023-01-25T03:47:03;100565.63;;;2.60;91.05
46007;BME280;31738;50.188;8.524;2023-01-25T03:53:27;100564.22;;;2.50;91.48
46007;BME280;31738;50.188;8.524;2023-01-25T03:56:07;100553.91;;;2.55;91.17
46007;BME280;31738;50.188;8.524;2023-01-25T03:58:35;100553.28;;;2.53;91.25
46007;BME280;31738;50.188;8.524;2023-01-25T04:01:06;100552.91;;;2.56;91.63
46007;BME280;31738;50.188;8.524;2023-01-25T04:07:11;100561.84;;;2.55;90.76
46007;BME280;31738;50.188;8.524;2023-01-25T04:09:42;100551.91;;;2.57;90.96
46007;BME280;31738;50.188;8.524;2023-01-25T04:12:15;100559.13;;;2.63;90.74
46007;BME280;31738;50.188;8.524;2023-01-25T04:14:41;100549.03;;;2.66;90.77
46007;BME280;31738;50.188;8.524;2023-01-25T04:17:09;100556.78;;;2.68;91.07
46007;BME280;31738;50.188;8.524;2023-01-25T04:19:44;100559.84;;;2.57;91.48
46007;BME280;31738;50.188;8.524;2023-01-25T04:22:15;100557.19;;;2.57;91.35
46007;BME280;31738;50.188;8.524;2023-01-25T04:24:41;100551.72;;;2.58;91.50
46007;BME280;31738;50.188;8.524;2023-01-25T04:27:07;100547.25;;;2.59;91.12
46007;BME280;31738;50.188;8.524;2023-01-25T04:29:40;100552.56;;;2.59;91.29
46007;BME280;31738;50.188;8.524;2023-01-25T04:32:06;100533.66;;;2.62;91.49
46007;BME280;31738;50.188;8.524;2023-01-25T04:34:35;100535.13;;;2.64;91.14
46007;BME280;31738;50.188;8.524;2023-01-25T04:37:01;100529.00;;;2.64;91.55
46007;BME280;31738;50.188;8.524;2023-01-25T04:39:32;100534.28;;;2.64;91.26
46007;BME280;31738;50.188;8.524;2023-01-25T04:41:58;100530.00;;;2.63;90.99
46007;BME280;31738;50.188;8.524;2023-01-25T04:44:23;100529.34;;;2.61;91.18
46007;BME280;31738;50.188;8.524;2023-01-25T04:46:49;100522.06;;;2.63;91.53
46007;BME280;31738;50.188;8.524;2023-01-25T04:49:16;100520.88;;;2.65;91.00
46007;BME280;31738;50.188;8.524;2023-01-25T04:51:42;100521.22;;;2.62;91.22
46007;BME280;31738;50.188;8.524;2023-01-25T04:54:08;100518.56;;;2.62;91.33
46007;BME280;31738;50.188;8.524;2023-01-25T04:56:34;100511.47;;;2.63;91.19
46007;BME280;31738;50.188;8.524;2023-01-25T04:59:02;100514.75;;;2.65;91.30
46007;BME280;31738;50.188;8.524;2023-01-25T05:01:28;100509.47;;;2.65;91.38
46007;BME280;31738;50.188;8.524;2023-01-25T05:04:18;100502.41;;;2.57;91.09
46007;BME280;31738;50.188;8.524;2023-01-25T05:06:47;100504.06;;;2.58;91.21
46007;BME280;31738;50.188;8.524;2023-01-25T05:09:13;100501.88;;;2.62;91.49
46007;BME280;31738;50.188;8.524;2023-01-25T05:11:39;100495.56;;;2.63;91.36
46007;BME280;31738;50.188;8.524;2023-01-25T05:14:08;100501.88;;;2.62;91.27
46007;BME280;31738;50.188;8.524;2023-01-25T05:16:34;100499.22;;;2.62;91.28
46007;BME280;31738;50.188;8.524;2023-01-25T05:19:00;100497.19;;;2.64;91.31
46007;BME280;31738;50.188;8.524;2023-01-25T05:21:49;100494.13;;;2.60;91.45
46007;BME280;31738;50.188;8.524;2023-01-25T05:24:30;100495.56;;;2.63;91.49
46007;BME280;31738;50.188;8.524;2023-01-25T05:26:58;100493.41;;;2.66;90.99
46007;BME280;31738;50.188;8.524;2023-01-25T05:29:45;100492.25;;;2.61;91.53
46007;BME280;31738;50.188;8.524;2023-01-25T05:32:14;100489.63;;;2.61;91.52
46007;BME280;31738;50.188;8.524;2023-01-25T05:34:40;100490.63;;;2.60;91.55
46007;BME280;31738;50.188;8.524;2023-01-25T05:37:13;100491.81;;;2.57;91.19
46007;BME280;31738;50.188;8.524;2023-01-25T05:39:42;100497.72;;;2.45;91.90
46007;BME280;31738;50.188;8.524;2023-01-25T05:42:27;100487.13;;;2.45;91.41
46007;BME280;31738;50.188;8.524;2023-01-25T05:45:25;100494.78;;;2.40;91.90
46007;BME280;31738;50.188;8.524;2023-01-25T05:47:54;100493.75;;;2.41;91.58
46007;BME280;31738;50.188;8.524;2023-01-25T05:50:22;100481.53;;;2.40;91.69
46007;BME280;31738;50.188;8.524;2023-01-25T05:56:07;100483.59;;;2.30;91.71
46007;BME280;31738;50.188;8.524;2023-01-25T05:58:34;100473.94;;;2.37;91.62
46007;BME280;31738;50.188;8.524;2023-01-25T06:01:02;100482.06;;;2.35;92.01
46007;BME280;31738;50.188;8.524;2023-01-25T06:03:39;100473.28;;;2.35;92.10
46007;BME280;31738;50.188;8.524;2023-01-25T06:06:06;100473.59;;;2.40;91.91
46007;BME280;31738;50.188;8.524;2023-01-25T06:08:35;100474.91;;;2.44;91.92
46007;BME280;31738;50.188;8.524;2023-01-25T06:11:12;100478.53;;;2.43;91.83
46007;BME280;31738;50.188;8.524;2023-01-25T06:17:11;100481.53;;;2.40;91.82
46007;BME280;31738;50.188;8.524;2023-01-25T06:19:55;100482.19;;;2.42;91.85
46007;BME280;31738;50.188;8.524;2023-01-25T06:22:27;100468.59;;;2.45;91.63
46007;BME280;31738;50.188;8.524;2023-01-25T06:24:53;100474.53;;;2.47;91.56
46007;BME280;31738;50.188;8.524;2023-01-25T06:27:19;100471.53;;;2.50;91.32
46007;BME280;31738;50.188;8.524;2023-01-25T06:29:44;100470.53;;;2.51;91.37
46007;BME280;31738;50.188;8.524;2023-01-25T06:32:10;100468.22;;;2.48;91.34
46007;BME280;31738;50.188;8.524;2023-01-25T06:34:35;100470.22;;;2.46;91.48
46007;BME280;31738;50.188;8.524;2023-01-25T06:41:29;100477.00;;;2.26;92.23
46007;BME280;31738;50.188;8.524;2023-01-25T06:43:54;100481.59;;;2.32;91.87
46007;BME280;31738;50.188;8.524;2023-01-25T06:49:09;100479.47;;;2.27;91.72
46007;BME280;31738;50.188;8.524;2023-01-25T06:51:34;100485.28;;;2.23;92.05
46007;BME280;31738;50.188;8.524;2023-01-25T06:54:01;100480.31;;;2.28;91.88
46007;BME280;31738;50.188;8.524;2023-01-25T06:56:28;100479.94;;;2.31;91.99
46007;BME280;31738;50.188;8.524;2023-01-25T06:58:53;100474.31;;;2.34;92.09
46007;BME280;31738;50.188;8.524;2023-01-25T07:01:21;100479.59;;;2.34;91.71
46007;BME280;31738;50.188;8.524;2023-01-25T07:03:53;100479.41;;;2.35;91.84
46007;BME280;31738;50.188;8.524;2023-01-25T07:06:20;100479.25;;;2.37;91.72
46007;BME280;31738;50.188;8.524;2023-01-25T07:08:46;100473.59;;;2.40;91.60
46007;BME280;31738;50.188;8.524;2023-01-25T07:11:13;100470.19;;;2.31;92.10
46007;BME280;31738;50.188;8.524;2023-01-25T07:13:40;100470.38;;;2.30;91.74
46007;BME280;31738;50.188;8.524;2023-01-25T07:16:09;100470.19;;;2.31;91.78
46007;BME280;31738;50.188;8.524;2023-01-25T07:18:35;100473.38;;;2.27;92.32
46007;BME280;31738;50.188;8.524;2023-01-25T07:21:09;100463.88;;;2.32;91.92
46007;BME280;31738;50.188;8.524;2023-01-25T07:23:34;100473.81;;;2.30;91.92
46007;BME280;31738;50.188;8.524;2023-01-25T07:26:02;100477.00;;;2.26;92.38
46007;BME280;31738;50.188;8.524;2023-01-25T07:28:28;100463.13;;;2.24;92.12
46007;BME280;31738;50.188;8.524;2023-01-25T07:30:53;100463.13;;;2.24;92.21
46007;BME280;31738;50.188;8.524;2023-01-25T07:33:19;100472.72;;;2.25;92.34
46007;BME280;31738;50.188;8.524;2023-01-25T07:38:33;100466.41;;;2.26;92.11
46007;BME280;31738;50.188;8.524;2023-01-25T07:40:59;100455.81;;;2.26;92.48
46007;BME280;31738;50.188;8.524;2023-01-25T07:43:25;100459.78;;;2.30;92.38
46007;BME280;31738;50.188;8.524;2023-01-25T07:45:51;100453.47;;;2.31;91.99
46007;BME280;31738;50.188;8.524;2023-01-25T07:48:18;100449.81;;;2.32;92.25
46007;BME280;31738;50.188;8.524;2023-01-25T07:50:44;100453.28;;;2.32;92.42
46007;BME280;31738;50.188;8.524;2023-01-25T07:53:39;100460.22;;;2.33;92.08
46007;BME280;31738;50.188;8.524;2023-01-25T07:56:06;100454.53;;;2.22;92.79
46007;BME280;31738;50.188;8.524;2023-01-25T07:58:32;100448.91;;;2.25;92.38
46007;BME280;31738;50.188;8.524;2023-01-25T08:01:08;100448.53;;;2.28;92.38
46007;BME280;31738;50.188;8.524;2023-01-25T08:03:35;100457.00;;;2.23;92.43
46007;BME280;31738;50.188;8.524;2023-01-25T08:06:27;100455.81;;;2.26;92.54
46007;BME280;31738;50.188;8.524;2023-01-25T08:09:12;100452.19;;;2.27;92.28
46007;BME280;31738;50.188;8.524;2023-01-25T08:11:41;100457.50;;;2.27;92.11
46007;BME280;31738;50.188;8.524;2023-01-25T08:14:14;100466.41;;;2.26;91.99
46007;BME280;31738;50.188;8.524;2023-01-25T08:16:45;100465.63;;;2.25;92.27
46007;BME280;31738;50.188;8.524;2023-01-25T08:19:11;100476.03;;;2.27;92.62
46007;BME280;31738;50.188;8.524;2023-01-25T08:21:40;100475.50;;;2.31;92.14
46007;BME280;31738;50.188;8.524;2023-01-25T08:24:06;100477.47;;;2.29;92.25
46007;BME280;31738;50.188;8.524;2023-01-25T08:26:36;100472.66;;;2.33;92.15
46007;BME280;31738;50.188;8.524;2023-01-25T08:29:03;100473.28;;;2.35;92.01
46007;BME280;31738;50.188;8.524;2023-01-25T08:31:39;100468.16;;;2.33;92.10
46007;BME280;31738;50.188;8.524;2023-01-25T08:34:10;100468.34;;;2.32;92.06
46007;BME280;31738;50.188;8.524;2023-01-25T08:36:36;100462.06;;;2.33;92.31
46007;BME280;31738;50.188;8.524;2023-01-25T08:42:30;100454.84;;;2.27;92.42
46007;BME280;31738;50.188;8.524;2023-01-25T08:44:56;100456.47;;;2.28;92.21
46007;BME280;31738;50.188;8.524;2023-01-25T08:47:22;100448.53;;;2.28;92.46
46007;BME280;31738;50.188;8.524;2023-01-25T08:49:48;100456.47;;;2.28;92.07
46007;BME280;31738;50.188;8.524;2023-01-25T08:52:30;100459.31;;;2.26;92.07
46007;BME280;31738;50.188;8.524;2023-01-25T08:55:02;100457.38;;;2.20;92.26
46007;BME280;31738;50.188;8.524;2023-01-25T08:57:27;100452.06;;;2.20;92.26
46007;BME280;31738;50.188;8.524;2023-01-25T08:59:52;100441.50;;;2.20;92.24
46007;BME280;31738;50.188;8.524;2023-01-25T09:02:18;100446.59;;;2.22;92.45
46007;BME280;31738;50.188;8.524;2023-01-25T09:04:45;100440.31;;;2.23;92.56
46007;BME280;31738;50.188;8.524;2023-01-25T09:07:11;100442.41;;;2.27;92.32
46007;BME280;31738;50.188;8.524;2023-01-25T09:09:36;100436.13;;;2.28;92.20
46007;BME280;31738;50.188;8.524;2023-01-25T09:12:02;100433.13;;;2.31;92.07
46007;BME280;31738;50.188;8.524;2023-01-25T09:14:27;100437.41;;;2.32;92.51
46007;BME280;31738;50.188;8.524;2023-01-25T09:16:53;100425.25;;;2.23;92.21
46007;BME280;31738;50.188;8.524;2023-01-25T09:19:18;100431.81;;;2.27;92.49
46007;BME280;31738;50.188;8.524;2023-01-25T09:21:44;100427.19;;;2.29;92.26
46007;BME280;31738;50.188;8.524;2023-01-25T09:24:09;100426.34;;;2.29;92.19
46007;BME280;31738;50.188;8.524;2023-01-25T09:26:44;100424.06;;;2.26;92.52
46007;BME280;31738;50.188;8.524;2023-01-25T09:29:10;100419.13;;;2.23;92.30
46007;BME280;31738;50.188;8.524;2023-01-25T09:31:37;100424.25;;;2.24;92.20
46007;BME280;31738;50.188;8.524;2023-01-25T09:34:09;100422.44;;;2.25;92.22
46007;BME280;31738;50.188;8.524;2023-01-25T09:36:36;100416.13;;;2.26;92.22
46007;BME280;31738;50.188;8.524;2023-01-25T09:39:01;100418.16;;;2.24;92.44
46007;BME280;31738;50.188;8.524;2023-01-25T09:41:52;100427.72;;;2.25;92.48
46007;BME280;31738;50.188;8.524;2023-01-25T09:44:54;100419.59;;;2.26;92.31
46007;BME280;31738;50.188;8.524;2023-01-25T09:47:41;100427.38;;;2.28;92.00
46007;BME280;31738;50.188;8.524;2023-01-25T09:50:24;100423.34;;;2.32;92.48
46007;BME280;31738;50.188;8.524;2023-01-25T09:55:43;100421.34;;;2.34;92.37
46007;BME280;31738;50.188;8.524;2023-01-25T09:58:17;100414.50;;;2.39;92.14
46007;BME280;31738;50.188;8.524;2023-01-25T10:00:44;100417.16;;;2.39;92.51
46007;BME280;31738;50.188;8.524;2023-01-25T10:03:22;100414.97;;;2.43;91.87
46007;BME280;31738;50.188;8.524;2023-01-25T10:05:53;100411.50;;;2.42;92.40
46007;BME280;31738;50.188;8.524;2023-01-25T10:08:28;100410.03;;;2.40;92.30
46007;BME280;31738;50.188;8.524;2023-01-25T10:11:18;100417.13;;;2.25;92.42
46007;BME280;31738;50.188;8.524;2023-01-25T10:13:42;100405.72;;;2.24;92.24
46007;BME280;31738;50.188;8.524;2023-01-25T10:18:58;100400.16;;;2.34;91.89
46007;BME280;31738;50.188;8.524;2023-01-25T10:21:35;100400.00;;;2.35;92.25
46007;BME280;31738;50.188;8.524;2023-01-25T10:26:48;100394.88;;;2.34;92.21
46007;BME280;31738;50.188;8.524;2023-01-25T10:29:18;100388.22;;;2.38;91.93
46007;BME280;31738;50.188;8.524;2023-01-25T10:31:48;100381.09;;;2.38;92.08
46007;BME280;31738;50.188;8.524;2023-01-25T10:34:26;100374.59;;;2.41;91.80
46007;BME280;31738;50.188;8.524;2023-01-25T10:37:01;100378.09;;;2.41;91.93
46007;BME280;31738;50.188;8.524;2023-01-25T10:39:29;100374.97;;;2.38;92.12
46007;BME280;31738;50.188;8.524;2023-01-25T10:41:58;100369.50;;;2.39;92.31
46007;BME280;31738;50.188;8.524;2023-01-25T10:44:25;100365.22;;;2.38;91.84
46007;BME280;31738;50.188;8.524;2023-01-25T10:49:22;100351.63;;;2.41;91.70
46007;BME280;31738;50.188;8.524;2023-01-25T10:51:49;100351.78;;;2.40;91.68
46007;BME280;31738;50.188;8.524;2023-01-25T10:54:15;100348.13;;;2.41;92.06
46007;BME280;31738;50.188;8.524;2023-01-25T10:56:41;100340.84;;;2.43;91.82
46007;BME280;31738;50.188;8.524;2023-01-25T10:59:23;100343.84;;;2.40;91.33
46007;BME280;31738;50.188;8.524;2023-01-25T11:01:50;100345.16;;;2.44;91.71
46007;BME280;31738;50.188;8.524;2023-01-25T11:04:31;100330.91;;;2.45;91.70
46007;BME280;31738;50.188;8.524;2023-01-25T11:06:58;100341.78;;;2.50;92.06
46007;BME280;31738;50.188;8.524;2023-01-25T11:12:01;100330.81;;;2.53;91.85
46007;BME280;31738;50.188;8.524;2023-01-25T11:14:29;100324.69;;;2.52;91.41
46007;BME280;31738;50.188;8.524;2023-01-25T11:16:56;100328.16;;;2.53;91.79
46007;BME280;31738;50.188;8.524;2023-01-25T11:19:42;100332.34;;;2.47;91.39
46007;BME280;31738;50.188;8.524;2023-01-25T11:22:21;100322.59;;;2.48;91.74
46007;BME280;31738;50.188;8.524;2023-01-25T11:24:50;100310.00;;;2.50;92.03
46007;BME280;31738;50.188;8.524;2023-01-25T11:27:24;100312.38;;;2.45;92.01
46007;BME280;31738;50.188;8.524;2023-01-25T11:30:13;100316.81;;;2.44;91.38
46007;BME280;31738;50.188;8.524;2023-01-25T11:32:40;100312.38;;;2.45;92.12
46007;BME280;31738;50.188;8.524;2023-01-25T11:35:24;100302.13;;;2.42;91.48
46007;BME280;31738;50.188;8.524;2023-01-25T11:38:12;100293.19;;;2.43;91.41
46007;BME280;31738;50.188;8.524;2023-01-25T12:04:05;100242.59;;;2.38;92.06
46007;BME280;31738;50.188;8.524;2023-01-25T12:12:24;100229.63;;;2.43;91.68
46007;BME280;31738;50.188;8.524;2023-01-25T12:17:42;100219.69;;;2.45;91.66
46007;BME280;31738;50.188;8.524;2023-01-25T12:20:27;100209.09;;;2.45;91.55
46007;BME280;31738;50.188;8.524;2023-01-25T12:23:25;100201.16;;;2.45;91.80
46007;BME280;31738;50.188;8.524;2023-01-25T12:28:33;100194.47;;;2.49;91.80
46007;BME280;31738;50.188;8.524;2023-01-25T12:31:05;100188.19;;;2.50;91.62
46007;BME280;31738;50.188;8.524;2023-01-25T12:33:46;100192.19;;;2.46;91.70
46007;BME280;31738;50.188;8.524;2023-01-25T12:36:21;100186.53;;;2.49;91.78
46007;BME280;31738;50.188;8.524;2023-01-25T12:38:55;100181.25;;;2.49;91.51
46007;BME280;31738;50.188;8.524;2023-01-25T12:41:32;100177.34;;;2.45;91.74
46007;BME280;31738;50.188;8.524;2023-01-25T12:44:10;100173.47;;;2.47;91.65
46007;BME280;31738;50.188;8.524;2023-01-25T12:46:57;100170.66;;;2.49;91.97
46007;BME280;31738;50.188;8.524;2023-01-25T12:52:28;100166.09;;;2.43;91.66
46007;BME280;31738;50.188;8.524;2023-01-25T12:54:58;100165.34;;;2.49;91.60
46007;BME280;31738;50.188;8.524;2023-01-25T12:57:32;100160.06;;;2.49;91.96
46007;BME280;31738;50.188;8.524;2023-01-25T13:00:22;100155.78;;;2.48;91.49
46007;BME280;31738;50.188;8.524;2023-01-25T13:03:11;100155.13;;;2.46;92.04
46007;BME280;31738;50.188;8.524;2023-01-25T13:08:32;100137.63;;;2.45;91.98
46007;BME280;31738;50.188;8.524;2023-01-25T13:13:29;100121.34;;;2.48;92.11
46007;BME280;31738;50.188;8.524;2023-01-25T13:15:55;100116.06;;;2.48;92.06
46007;BME280;31738;50.188;8.524;2023-01-25T13:20:57;100101.44;;;2.52;91.52
46007;BME280;31738;50.188;8.524;2023-01-25T13:23:32;100095.16;;;2.53;91.30
46007;BME280;31738;50.188;8.524;2023-01-25T13:28:52;100097.78;;;2.53;91.84
46007;BME280;31738;50.188;8.524;2023-01-25T13:34:09;100089.22;;;2.51;91.44
46007;BME280;31738;50.188;8.524;2023-01-25T13:42:00;100071.69;;;2.50;91.46
46007;BME280;31738;50.188;8.524;2023-01-25T13:44:29;100073.31;;;2.51;92.12
46007;BME280;31738;50.188;8.524;2023-01-25T13:47:00;100067.00;;;2.52;91.73
46007;BME280;31738;50.188;8.524;2023-01-25T13:49:33;100070.66;;;2.51;91.54
46007;BME280;31738;50.188;8.524;2023-01-25T13:52:02;100064.72;;;2.49;91.40
46007;BME280;31738;50.188;8.524;2023-01-25T13:54:29;100061.09;;;2.50;91.46
46007;BME280;31738;50.188;8.524;2023-01-25T13:57:06;100064.72;;;2.49;91.64
46007;BME280;31738;50.188;8.524;2023-01-25T13:59:35;100054.97;;;2.49;91.40
46007;BME280;31738;50.188;8.524;2023-01-25T14:02:00;100056.00;;;2.48;91.45
46007;BME280;31738;50.188;8.524;2023-01-25T14:04:28;100041.72;;;2.49;91.86
46007;BME280;31738;50.188;8.524;2023-01-25T14:06:57;100045.22;;;2.50;91.28
46007;BME280;31738;50.188;8.524;2023-01-25T14:09:23;100050.50;;;2.50;91.49
46007;BME280;31738;50.188;8.524;2023-01-25T14:11:55;100043.56;;;2.49;91.36
46007;BME280;31738;50.188;8.524;2023-01-25T14:14:30;100031.34;;;2.48;91.26
46007;BME280;31738;50.188;8.524;2023-01-25T14:17:16;100030.50;;;2.47;91.59
46007;BME280;31738;50.188;8.524;2023-01-25T14:19:43;100028.31;;;2.30;91.90
46007;BME280;31738;50.188;8.524;2023-01-25T14:27:45;100020.59;;;2.35;91.46
46007;BME280;31738;50.188;8.524;2023-01-25T14:30:17;100020.59;;;2.35;91.48
46007;BME280;31738;50.188;8.524;2023-01-25T14:32:44;100023.88;;;2.37;91.55
46007;BME280;31738;50.188;8.524;2023-01-25T14:37:53;100014.94;;;2.38;91.60
46007;BME280;31738;50.188;8.524;2023-01-25T14:40:20;100006.59;;;2.41;91.75
46007;BME280;31738;50.188;8.524;2023-01-25T14:42:48;100005.63;;;2.42;91.12
46007;BME280;31738;50.188;8.524;2023-01-25T14:45:14;100002.06;;;2.35;91.30
46007;BME280;31738;50.188;8.524;2023-01-25T14:47:40;99996.59;;;2.36;91.59
46007;BME280;31738;50.188;8.524;2023-01-25T14:53:20;99989.66;;;2.35;91.71
46007;BME280;31738;50.188;8.524;2023-01-25T14:55:47;99979.91;;;2.36;91.21
46007;BME280;31738;50.188;8.524;2023-01-25T14:58:19;99986.84;;;2.37;91.17
46007;BME280;31738;50.188;8.524;2023-01-25T15:00:57;99986.00;;;2.36;91.63
46007;BME280;31738;50.188;8.524;2023-01-25T15:03:24;99982.38;;;2.37;91.64
46007;BME280;31738;50.188;8.524;2023-01-25T15:05:51;99975.88;;;2.40;91.58
46007;BME280;31738;50.188;8.524;2023-01-25T15:08:36;99984.81;;;2.39;91.40
46007;BME280;31738;50.188;8.524;2023-01-25T15:11:02;99975.59;;;2.35;91.06
46007;BME280;31738;50.188;8.524;2023-01-25T15:13:47;99974.09;;;2.26;91.38
46007;BME280;31738;50.188;8.524;2023-01-25T15:16:12;99974.94;;;2.26;91.25
46007;BME280;31738;50.188;8.524;2023-01-25T15:18:51;99966.59;;;2.29;91.59
46007;BME280;31738;50.188;8.524;2023-01-25T15:21:27;99970.09;;;2.30;91.77
46007;BME280;31738;50.188;8.524;2023-01-25T15:23:55;99960.94;;;2.32;91.34
46007;BME280;31738;50.188;8.524;2023-01-25T15:30:48;99952.69;;;2.21;91.46
46007;BME280;31738;50.188;8.524;2023-01-25T15:33:22;99949.28;;;2.27;91.39